Pagrindinis puslapis
METAR-TAF:

METAR-TAF

Oro uostai :

Palembangas, Indonezija

platuma: 02-54S, ilguma: 104-42E, Aukštis: 10 m

Dabartinis oras

Ataskaita buvo paskelbta 2 valandos ir 8 minutes, ne 12:30 UTC
Vėjas 5 kt iš Rytų/Šiaurės Rytų
Temperatūra 28°C
Drėgmė 84%
Slėgis 1009 hPa
Matomumas: 8000 m
Mažai debesys ne aukštis 1000 ft
lietus

METAR: WIPP 151230Z 06005KT 8000 -RA FEW010 28/25 Q1009

Laikas: 21:38 (14:38 UTC)

Prognozė

Ataskaita buvo paskelbta 3 valandos ir 38 minutes, ne 11:00 UTC
Prognozė galioja nuo 15 metu 12 UTC su 16 metu 12 UTC
Vėjas 6 kt iš Šiaurės
Matomumas 10 km arba daugiau
Išsisklaidę debesys ne aukštis 1000 ft
Laikinai
nuo 15 metu 20 UTC su 15 metu 24 UTC
Matomumas: 3000 m
rūkana

TAF: WIPP 151100Z 1512/1612 35006KT 9999 SCT010 TEMPO 1520/1524 3000 BR

Orai ataskaitas ir orų prognozės (METAR, TAF).

turimą stotys yra geltonos ir raudonos taškus žemėlapyje.

Perkelti pele per norėdami pamatyti stoties vardą.

Tada spustelėkite, norėdami matyti oro stebėjimo ir prognozės.

Norėdami pakeisti žemėlapį: spustelėkite ant žalios mygtukų su juodo kryžiaus žemyn,; žalią mygtuką su brūkšneliu, jei norite nutolinti; arba žalių rodyklių gretimoms žemėlapius.


METAR-TAF: